createdAt,value
2023-09-02T00:01:25.001Z,98266.25
2023-09-02T00:04:28.281Z,98258.09
2023-09-02T00:07:32.799Z,98263.72
2023-09-02T00:10:35.976Z,98261.47
2023-09-02T00:13:39.752Z,98257.84
2023-09-02T00:16:42.959Z,98251.13
2023-09-02T00:19:46.123Z,98260.94
2023-09-02T00:22:50.696Z,98261.16
2023-09-02T00:25:54.077Z,98258.72
2023-09-02T00:28:57.258Z,98251.53
2023-09-02T00:32:00.438Z,98249.94
2023-09-02T00:35:04.187Z,98254.25
2023-09-02T00:38:08.739Z,98253.13
2023-09-02T00:41:15.681Z,98260.00
2023-09-02T00:44:19.244Z,98258.88
2023-09-02T00:47:22.562Z,98255.28
2023-09-02T00:50:25.912Z,98258.53
2023-09-02T00:53:30.430Z,98263.31
2023-09-02T00:56:34.662Z,98256.06
2023-09-02T00:59:37.991Z,98255.22
2023-09-02T01:02:41.432Z,98260.56
2023-09-02T01:05:44.671Z,98263.47
2023-09-02T01:08:49.706Z,98262.16
2023-09-02T01:11:52.967Z,98267.38
2023-09-02T01:14:56.242Z,98267.78
2023-09-02T01:17:59.644Z,98266.53
2023-09-02T01:21:38.716Z,98270.94
2023-09-02T01:25:07.994Z,98272.44
2023-09-02T01:28:17.528Z,98274.28
2023-09-02T01:31:24.190Z,98264.59
2023-09-02T01:34:29.881Z,98275.41
2023-09-02T01:37:35.215Z,98275.13
2023-09-02T01:40:42.716Z,98275.03
2023-09-02T01:43:48.037Z,98273.38
2023-09-02T01:46:52.205Z,98271.03
2023-09-02T01:49:56.179Z,98277.16
2023-09-02T01:53:00.534Z,98277.78
2023-09-02T01:56:04.921Z,98284.31
2023-09-02T01:59:09.783Z,98277.50
2023-09-02T02:02:15.590Z,98283.50
2023-09-02T02:05:20.170Z,98290.31
2023-09-02T02:08:31.082Z,98289.66
2023-09-02T02:11:37.438Z,98292.56
2023-09-02T02:14:42.083Z,98282.84
2023-09-02T02:17:45.391Z,98292.63
2023-09-02T02:21:00.456Z,98297.84
2023-09-02T02:24:03.860Z,98299.03
2023-09-02T02:27:07.484Z,98303.59
2023-09-02T02:30:13.466Z,98297.53
2023-09-02T02:33:17.028Z,98304.44
2023-09-02T02:36:20.387Z,98306.63
2023-09-02T02:39:23.964Z,98301.75
2023-09-02T02:42:27.172Z,98306.44
2023-09-02T02:45:31.755Z,98305.59
2023-09-02T02:48:35.240Z,98301.84
2023-09-02T02:51:38.434Z,98294.00
2023-09-02T02:54:41.631Z,98278.72
2023-09-02T02:57:45.333Z,98297.47
2023-09-02T03:00:51.059Z,98302.44
2023-09-02T03:03:55.641Z,98303.94
2023-09-02T03:06:59.044Z,98312.97
2023-09-02T03:10:02.264Z,98316.09
2023-09-02T03:13:07.810Z,98314.50
2023-09-02T03:16:14.010Z,98322.78
2023-09-02T03:19:17.640Z,98321.22
2023-09-02T03:22:21.919Z,98318.19
2023-09-02T03:25:28.420Z,98320.38
2023-09-02T03:28:32.075Z,98316.78
2023-09-02T03:34:29.529Z,98321.97
2023-09-02T03:37:32.879Z,98324.66
2023-09-02T03:40:36.142Z,98322.22
2023-09-02T03:43:39.425Z,98318.88
2023-09-02T03:46:42.759Z,98320.69
2023-09-02T03:49:47.638Z,98312.16
2023-09-02T03:52:51.027Z,98325.63
2023-09-02T03:55:55.331Z,98324.50
2023-09-02T03:59:00.227Z,98321.03
2023-09-02T04:02:04.131Z,98327.16
2023-09-02T04:05:09.114Z,98329.09
2023-09-02T04:08:12.380Z,98335.81
2023-09-02T04:11:17.673Z,98329.44
2023-09-02T04:14:20.857Z,98334.31
2023-09-02T04:17:24.990Z,98344.41
2023-09-02T04:20:29.672Z,98346.66
2023-09-02T04:23:34.413Z,98341.88
2023-09-02T04:26:44.251Z,98353.56
2023-09-02T04:29:47.510Z,98340.34
2023-09-02T04:32:51.999Z,98350.28
2023-09-02T04:36:00.251Z,98351.59
2023-09-02T04:39:06.098Z,98356.13
2023-09-02T04:42:09.824Z,98359.16
2023-09-02T04:45:15.833Z,98370.09
2023-09-02T04:48:20.844Z,98374.75
2023-09-02T04:51:37.572Z,98372.91
2023-09-02T04:54:46.924Z,98374.44
2023-09-02T04:57:54.545Z,98384.69
2023-09-02T05:01:09.201Z,98388.84
2023-09-02T05:04:16.836Z,98380.75
2023-09-02T05:07:22.043Z,98390.34
2023-09-02T05:10:25.669Z,98391.91
2023-09-02T05:13:29.101Z,98397.78
2023-09-02T05:16:32.621Z,98402.69
2023-09-02T05:19:57.299Z,98409.09
2023-09-02T05:23:02.351Z,98404.00
2023-09-02T05:26:06.048Z,98415.41
2023-09-02T05:29:10.316Z,98405.25
2023-09-02T05:32:14.833Z,98411.28
2023-09-02T05:35:18.308Z,98411.13
2023-09-02T05:38:23.123Z,98408.22
2023-09-02T05:41:26.432Z,98409.00
2023-09-02T05:44:29.618Z,98409.56
2023-09-02T05:47:33.164Z,98411.44
2023-09-02T05:50:36.614Z,98421.09
2023-09-02T05:53:41.229Z,98424.19
2023-09-02T05:56:49.992Z,98432.19
2023-09-02T05:59:53.330Z,98427.69
2023-09-02T06:02:56.624Z,98425.66
2023-09-02T06:05:59.879Z,98416.75
2023-09-02T06:09:04.793Z,98419.19
2023-09-02T06:12:08.422Z,98420.66
2023-09-02T06:15:32.005Z,98412.53
2023-09-02T06:18:37.396Z,98408.88
2023-09-02T06:21:40.568Z,98399.31
2023-09-02T06:24:45.280Z,98407.63
2023-09-02T06:27:48.451Z,98406.69
2023-09-02T06:30:51.760Z,98413.16
2023-09-02T06:33:57.154Z,98403.34
2023-09-02T06:37:00.313Z,98400.06
2023-09-02T06:40:05.596Z,98405.28
2023-09-02T06:43:08.716Z,98412.91
2023-09-02T06:46:13.649Z,98407.59
2023-09-02T06:49:16.984Z,98406.34
2023-09-02T06:52:20.168Z,98393.72
2023-09-02T06:55:26.500Z,98402.41
2023-09-02T06:58:29.780Z,98407.63
2023-09-02T07:01:33.018Z,98408.00
2023-09-02T07:04:38.468Z,98411.22
2023-09-02T07:07:41.780Z,98409.56
2023-09-02T07:10:46.322Z,98419.16
2023-09-02T07:13:49.468Z,98428.22
2023-09-02T07:16:53.520Z,98431.00
2023-09-02T07:19:57.380Z,98435.53
2023-09-02T07:23:00.599Z,98437.16
2023-09-02T07:26:06.571Z,98443.06
2023-09-02T07:29:10.338Z,98443.81
2023-09-02T07:32:13.558Z,98444.94
2023-09-02T07:35:16.827Z,98454.28
2023-09-02T07:38:20.197Z,98447.84
2023-09-02T07:41:24.929Z,98449.78
2023-09-02T07:44:28.267Z,98452.53
2023-09-02T07:47:31.608Z,98449.44
2023-09-02T07:50:34.798Z,98457.69
2023-09-02T07:53:37.968Z,98462.34
2023-09-02T07:56:42.564Z,98461.44
2023-09-02T07:59:45.821Z,98466.34
2023-09-02T08:02:49.026Z,98467.28
2023-09-02T08:05:52.398Z,98480.38
2023-09-02T08:08:55.888Z,98485.13
2023-09-02T08:12:00.414Z,98476.53
2023-09-02T08:15:03.845Z,98484.47
2023-09-02T08:18:08.626Z,98485.47
2023-09-02T08:21:13.021Z,98484.34
2023-09-02T08:24:16.223Z,98481.81
2023-09-02T08:27:20.742Z,98482.88
2023-09-02T08:30:24.337Z,98491.09
2023-09-02T08:33:28.116Z,98485.47
2023-09-02T08:36:31.432Z,98491.00
2023-09-02T08:39:35.144Z,98492.66
2023-09-02T08:42:41.716Z,98482.25
2023-09-02T08:45:51.318Z,98481.81
2023-09-02T08:48:57.240Z,98483.50
2023-09-02T08:52:01.438Z,98485.53
2023-09-02T08:55:05.810Z,98489.25
2023-09-02T08:58:10.834Z,98497.13
2023-09-02T09:01:18.778Z,98498.44
2023-09-02T09:04:22.949Z,98496.41
2023-09-02T09:07:27.081Z,98490.34
2023-09-02T09:10:33.500Z,98497.47
2023-09-02T09:13:45.053Z,98493.75
2023-09-02T09:16:50.842Z,98496.31
2023-09-02T09:19:54.918Z,98497.69
2023-09-02T09:22:58.230Z,98500.81
2023-09-02T09:26:01.792Z,98500.97
2023-09-02T09:29:13.185Z,98508.97
2023-09-02T09:34:37.557Z,98520.00
2023-09-02T09:37:54.354Z,98518.34
2023-09-02T09:40:57.603Z,98522.03
2023-09-02T09:44:05.191Z,98513.75
2023-09-02T09:47:11.103Z,98516.81
2023-09-02T09:50:17.596Z,98519.50
2023-09-02T09:53:21.181Z,98522.13
2023-09-02T09:56:25.320Z,98526.31
2023-09-02T09:59:28.701Z,98521.56
2023-09-02T10:02:32.008Z,98517.47
2023-09-02T10:05:36.855Z,98522.50
2023-09-02T10:08:54.178Z,98516.16
2023-09-02T10:12:12.462Z,98509.13
2023-09-02T10:15:16.376Z,98513.31
2023-09-02T10:18:21.463Z,98516.13
2023-09-02T10:21:30.965Z,98514.78
2023-09-02T10:24:38.325Z,98516.19
2023-09-02T10:27:45.629Z,98521.31
2023-09-02T10:30:52.526Z,98512.75
2023-09-02T10:34:04.148Z,98515.84
2023-09-02T10:37:15.062Z,98509.88
2023-09-02T10:40:24.262Z,98517.25
2023-09-02T10:43:28.133Z,98515.88
2023-09-02T10:46:31.963Z,98507.09
2023-09-02T10:49:36.409Z,98506.56
2023-09-02T10:52:43.621Z,98503.06
2023-09-02T10:56:00.942Z,98501.66
2023-09-02T10:59:06.065Z,98515.03
2023-09-02T11:02:09.532Z,98518.91
2023-09-02T11:05:13.792Z,98517.00
2023-09-02T11:08:47.618Z,98513.38
2023-09-02T11:12:10.999Z,98505.44
2023-09-02T11:15:19.839Z,98510.56
2023-09-02T11:18:30.887Z,98513.38
2023-09-02T11:21:37.891Z,98510.03
2023-09-02T11:24:50.236Z,98509.44
2023-09-02T11:27:54.158Z,98502.94
2023-09-02T11:31:06.637Z,98509.91
2023-09-02T11:34:10.359Z,98505.59
2023-09-02T11:37:13.907Z,98509.13
2023-09-02T11:40:19.982Z,98501.38
2023-09-02T11:43:23.168Z,98501.34
2023-09-02T11:46:26.723Z,98503.03
2023-09-02T11:49:30.031Z,98515.31
2023-09-02T11:52:33.294Z,98510.97
2023-09-02T11:55:40.196Z,98508.47
2023-09-02T11:58:43.518Z,98503.59
2023-09-02T12:01:46.755Z,98512.44
2023-09-02T12:04:50.014Z,98505.50
2023-09-02T12:07:53.306Z,98509.69
2023-09-02T12:10:59.361Z,98502.16
2023-09-02T12:14:03.034Z,98489.56
2023-09-02T12:17:07.055Z,98475.91
2023-09-02T12:20:12.498Z,98471.38
2023-09-02T12:23:17.038Z,98469.81
2023-09-02T12:26:23.801Z,98468.97
2023-09-02T12:29:27.328Z,98460.28
2023-09-02T12:32:32.289Z,98464.97
2023-09-02T12:35:35.833Z,98468.56
2023-09-02T12:38:50.021Z,98467.53
2023-09-02T12:41:54.616Z,98472.19
2023-09-02T12:45:03.544Z,98475.59
2023-09-02T12:48:07.632Z,98469.47
2023-09-02T12:51:22.439Z,98464.34
2023-09-02T12:54:31.766Z,98480.00
2023-09-02T12:57:37.544Z,98477.72
2023-09-02T13:00:40.755Z,98475.19
2023-09-02T13:03:44.002Z,98473.59
2023-09-02T13:06:47.762Z,98472.94
2023-09-02T13:09:53.023Z,98478.28
2023-09-02T13:12:58.773Z,98484.09
2023-09-02T13:16:02.144Z,98486.22
2023-09-02T13:19:08.839Z,98478.03
2023-09-02T13:22:11.944Z,98477.50
2023-09-02T13:25:17.219Z,98481.09
2023-09-02T13:28:21.790Z,98479.56
2023-09-02T13:31:24.977Z,98488.22
2023-09-02T13:34:32.997Z,98484.19
2023-09-02T13:37:37.448Z,98490.19
2023-09-02T13:40:41.209Z,98490.84
2023-09-02T13:43:45.743Z,98494.34
2023-09-02T13:46:55.910Z,98489.81
2023-09-02T13:50:01.094Z,98495.16
2023-09-02T13:53:04.785Z,98485.97
2023-09-02T13:56:08.061Z,98497.47
2023-09-02T13:59:12.862Z,98502.06
2023-09-02T14:02:18.926Z,98498.22
2023-09-02T14:05:25.317Z,98495.66
2023-09-02T14:08:36.288Z,98507.16
2023-09-02T14:11:39.513Z,98503.94
2023-09-02T14:14:44.141Z,98512.09
2023-09-02T14:17:47.666Z,98512.13
2023-09-02T14:20:50.901Z,98502.03
2023-09-02T14:23:54.819Z,98507.53
2023-09-02T14:27:12.372Z,98505.97
2023-09-02T14:30:17.329Z,98503.91
2023-09-02T14:33:20.716Z,98509.03
2023-09-02T14:36:24.187Z,98508.31
2023-09-02T14:39:28.963Z,98511.56
2023-09-02T14:42:33.745Z,98505.25
2023-09-02T14:45:38.328Z,98500.44
2023-09-02T14:48:42.487Z,98495.28
2023-09-02T14:51:48.048Z,98493.38
2023-09-02T14:54:52.034Z,98489.75
2023-09-02T14:57:55.606Z,98491.16
2023-09-02T15:01:03.433Z,98499.22
2023-09-02T15:04:08.981Z,98497.19
2023-09-02T15:07:15.921Z,98501.19
2023-09-02T15:10:24.925Z,98503.25
2023-09-02T15:13:29.217Z,98496.88
2023-09-02T15:16:35.446Z,98502.84
2023-09-02T15:19:40.623Z,98511.78
2023-09-02T15:22:43.896Z,98510.81
2023-09-02T15:25:47.064Z,98513.53
2023-09-02T15:28:50.374Z,98515.25
2023-09-02T15:34:29.325Z,98507.84
2023-09-02T15:37:32.504Z,98518.22
2023-09-02T15:40:36.440Z,98516.41
2023-09-02T15:43:40.340Z,98514.84
2023-09-02T15:46:43.524Z,98527.06
2023-09-02T15:49:48.136Z,98523.19
2023-09-02T15:52:52.770Z,98525.78
2023-09-02T15:55:56.760Z,98526.94
2023-09-02T15:59:00.019Z,98520.56
2023-09-02T16:02:03.251Z,98532.53
2023-09-02T16:05:08.556Z,98533.53
2023-09-02T16:08:11.712Z,98530.03
2023-09-02T16:11:15.031Z,98532.41
2023-09-02T16:14:18.240Z,98525.00
2023-09-02T16:17:22.747Z,98533.28
2023-09-02T16:20:28.235Z,98525.88
2023-09-02T16:23:31.495Z,98530.75
2023-09-02T16:26:34.782Z,98533.38
2023-09-02T16:29:38.928Z,98528.41
2023-09-02T16:32:42.443Z,98540.63
2023-09-02T16:35:47.070Z,98533.69
2023-09-02T16:38:51.080Z,98537.31
2023-09-02T16:41:54.570Z,98544.94
2023-09-02T16:45:03.528Z,98541.19
2023-09-02T16:48:10.417Z,98539.38
2023-09-02T16:51:17.385Z,98536.03
2023-09-02T16:54:20.645Z,98534.50
2023-09-02T16:57:23.809Z,98535.88
2023-09-02T17:00:32.653Z,98533.94
2023-09-02T17:03:37.172Z,98538.94
2023-09-02T17:06:41.892Z,98531.63
2023-09-02T17:09:45.325Z,98537.34
2023-09-02T17:12:49.162Z,98529.09
2023-09-02T17:15:52.582Z,98527.13
2023-09-02T17:18:56.933Z,98530.38
2023-09-02T17:22:01.576Z,98533.47
2023-09-02T17:25:05.290Z,98530.19
2023-09-02T17:28:10.340Z,98534.84
2023-09-02T17:31:13.877Z,98533.94
2023-09-02T17:34:17.097Z,98527.56
2023-09-02T17:37:23.009Z,98531.47
2023-09-02T17:40:28.125Z,98530.56
2023-09-02T17:43:31.391Z,98527.56
2023-09-02T17:46:34.919Z,98531.91
2023-09-02T17:49:38.197Z,98536.94
2023-09-02T17:52:42.878Z,98531.44
2023-09-02T17:55:46.606Z,98538.06
2023-09-02T17:58:49.797Z,98538.69
2023-09-02T18:01:53.080Z,98538.09
2023-09-02T18:04:58.811Z,98534.50
2023-09-02T18:08:05.013Z,98540.75
2023-09-02T18:11:08.270Z,98546.03
2023-09-02T18:14:11.414Z,98558.47
2023-09-02T18:17:14.673Z,98563.75
2023-09-02T18:20:18.015Z,98564.22
2023-09-02T18:23:22.588Z,98570.19
2023-09-02T18:26:25.812Z,98576.38
2023-09-02T18:29:29.190Z,98568.41
2023-09-02T18:32:33.790Z,98568.97
2023-09-02T18:35:37.448Z,98577.94
2023-09-02T18:38:41.956Z,98582.59
2023-09-02T18:41:49.901Z,98579.38
2023-09-02T18:44:53.116Z,98585.47
2023-09-02T18:47:56.834Z,98586.63
2023-09-02T18:51:00.040Z,98587.72
2023-09-02T18:54:04.910Z,98587.22
2023-09-02T18:57:08.704Z,98594.03
2023-09-02T19:00:13.127Z,98599.13
2023-09-02T19:03:16.302Z,98606.13
2023-09-02T19:06:19.592Z,98613.84
2023-09-02T19:09:24.081Z,98610.16
2023-09-02T19:12:27.263Z,98612.06
2023-09-02T19:15:30.418Z,98619.22
2023-09-02T19:18:33.650Z,98621.84
2023-09-02T19:21:36.883Z,98616.91
2023-09-02T19:24:41.657Z,98621.25
2023-09-02T19:27:46.203Z,98622.09
2023-09-02T19:30:54.647Z,98630.53
2023-09-02T19:33:57.854Z,98636.44
2023-09-02T19:37:04.978Z,98642.88
2023-09-02T19:40:10.715Z,98645.00
2023-09-02T19:43:13.933Z,98647.94
2023-09-02T19:46:17.460Z,98664.03
2023-09-02T19:49:23.549Z,98672.84
2023-09-02T19:52:27.302Z,98664.06
2023-09-02T19:55:34.189Z,98673.00
2023-09-02T19:58:46.756Z,98673.31
2023-09-02T20:01:57.362Z,98677.91
2023-09-02T20:05:00.735Z,98676.84
2023-09-02T20:08:03.905Z,98679.69
2023-09-02T20:11:08.590Z,98681.47
2023-09-02T20:14:11.966Z,98689.06
2023-09-02T20:17:16.025Z,98703.53
2023-09-02T20:20:19.455Z,98707.41
2023-09-02T20:23:22.835Z,98706.06
2023-09-02T20:26:27.369Z,98703.44
2023-09-02T20:29:30.537Z,98700.97
2023-09-02T20:32:33.793Z,98711.88
2023-09-02T20:35:37.367Z,98713.44
2023-09-02T20:38:44.126Z,98713.56
2023-09-02T20:41:52.696Z,98712.06
2023-09-02T20:44:56.127Z,98704.53
2023-09-02T20:47:59.446Z,98703.56
2023-09-02T20:51:02.783Z,98706.94
2023-09-02T20:54:07.080Z,98715.09
2023-09-02T20:57:11.697Z,98719.84
2023-09-02T21:00:15.864Z,98715.53
2023-09-02T21:03:19.041Z,98715.72
2023-09-02T21:06:22.342Z,98723.50
2023-09-02T21:09:25.631Z,98729.47
2023-09-02T21:12:30.164Z,98730.41
2023-09-02T21:15:36.144Z,98725.53
2023-09-02T21:18:39.952Z,98724.03
2023-09-02T21:21:43.142Z,98725.09
2023-09-02T21:24:51.320Z,98743.69
2023-09-02T21:27:55.834Z,98751.94
2023-09-02T21:34:29.140Z,98762.22
2023-09-02T21:37:32.480Z,98744.31
2023-09-02T21:40:35.777Z,98762.25
2023-09-02T21:43:40.888Z,98768.13
2023-09-02T21:46:44.604Z,98765.25
2023-09-02T21:49:50.210Z,98758.94
2023-09-02T21:52:53.374Z,98754.56
2023-09-02T21:55:57.048Z,98754.78
2023-09-02T21:59:00.245Z,98757.75
2023-09-02T22:02:03.991Z,98751.13
2023-09-02T22:05:09.015Z,98747.28
2023-09-02T22:08:12.325Z,98742.78
2023-09-02T22:11:17.344Z,98745.69
2023-09-02T22:14:20.575Z,98751.97
2023-09-02T22:17:23.895Z,98750.47
2023-09-02T22:20:29.150Z,98747.41
2023-09-02T22:23:33.392Z,98754.47
2023-09-02T22:26:36.603Z,98751.84
2023-09-02T22:29:39.881Z,98749.06
2023-09-02T22:32:43.083Z,98761.38
2023-09-02T22:35:47.974Z,98760.56
2023-09-02T22:41:57.885Z,98749.69
2023-09-02T22:45:01.111Z,98764.09
2023-09-02T22:48:04.925Z,98770.16
2023-09-02T22:51:12.566Z,98767.47
2023-09-02T22:54:15.713Z,98774.63
2023-09-02T22:57:18.851Z,98770.63
2023-09-02T23:00:22.098Z,98773.47
2023-09-02T23:03:25.357Z,98777.03
2023-09-02T23:06:29.868Z,98775.34
2023-09-02T23:09:34.236Z,98779.00
2023-09-02T23:12:37.588Z,98772.94
2023-09-02T23:15:40.788Z,98770.41
2023-09-02T23:18:43.938Z,98773.28
2023-09-02T23:21:50.201Z,98775.03
2023-09-02T23:24:53.390Z,98774.94
2023-09-02T23:27:56.566Z,98779.00
2023-09-02T23:31:00.322Z,98777.06
2023-09-02T23:34:03.954Z,98779.78
2023-09-02T23:37:08.994Z,98781.16
2023-09-02T23:40:15.899Z,98780.31
2023-09-02T23:43:20.382Z,98784.28
2023-09-02T23:46:23.708Z,98773.72
2023-09-02T23:49:27.369Z,98767.00
2023-09-02T23:52:33.708Z,98779.38
2023-09-02T23:55:37.025Z,98768.38
2023-09-02T23:58:40.270Z,98771.22
